sensor_id;sensor_type;location;lat;lon;timestamp;pressure;altitude;pressure_sealevel;temperature;humidity
1616;BME280;801;47.982;7.810;2022-12-29T00:01:21;98314.84;;;14.57;59.67
1616;BME280;801;47.982;7.810;2022-12-29T00:03:48;98301.69;;;14.69;60.10
1616;BME280;801;47.982;7.810;2022-12-29T00:06:15;98297.22;;;14.59;59.69
1616;BME280;801;47.982;7.810;2022-12-29T00:08:41;98315.31;;;14.40;60.14
1616;BME280;801;47.982;7.810;2022-12-29T00:11:11;98330.31;;;14.51;59.15
1616;BME280;801;47.982;7.810;2022-12-29T00:13:39;98296.63;;;14.62;59.26
1616;BME280;801;47.982;7.810;2022-12-29T00:16:23;98294.03;;;14.57;59.24
1616;BME280;801;47.982;7.810;2022-12-29T00:18:50;98279.44;;;14.53;59.13
1616;BME280;801;47.982;7.810;2022-12-29T00:21:18;98272.53;;;14.47;59.47
1616;BME280;801;47.982;7.810;2022-12-29T00:24:03;98285.91;;;14.57;58.98
1616;BME280;801;47.982;7.810;2022-12-29T00:26:49;98280.00;;;14.55;58.60
1616;BME280;801;47.982;7.810;2022-12-29T00:29:36;98282.69;;;14.55;57.59
1616;BME280;801;47.982;7.810;2022-12-29T00:32:20;98303.22;;;14.75;57.28
1616;BME280;801;47.982;7.810;2022-12-29T00:35:06;98287.22;;;14.79;57.15
1616;BME280;801;47.982;7.810;2022-12-29T00:37:37;98280.41;;;14.62;56.90
1616;BME280;801;47.982;7.810;2022-12-29T00:40:34;98299.72;;;14.56;56.57
1616;BME280;801;47.982;7.810;2022-12-29T00:43:19;98308.72;;;14.70;56.29
1616;BME280;801;47.982;7.810;2022-12-29T00:46:03;98294.34;;;14.88;55.81
1616;BME280;801;47.982;7.810;2022-12-29T00:48:30;98320.00;;;14.53;56.04
1616;BME280;801;47.982;7.810;2022-12-29T00:51:14;98330.28;;;14.56;55.42
1616;BME280;801;47.982;7.810;2022-12-29T00:53:40;98298.69;;;14.51;56.50
1616;BME280;801;47.982;7.810;2022-12-29T00:56:07;98280.56;;;14.52;56.37
1616;BME280;801;47.982;7.810;2022-12-29T00:58:35;98293.66;;;14.64;55.98
1616;BME280;801;47.982;7.810;2022-12-29T01:01:01;98296.06;;;14.65;55.91
1616;BME280;801;47.982;7.810;2022-12-29T01:03:28;98306.66;;;14.43;56.33
1616;BME280;801;47.982;7.810;2022-12-29T01:05:55;98295.03;;;14.61;57.02
1616;BME280;801;47.982;7.810;2022-12-29T01:08:21;98303.78;;;14.34;58.42
1616;BME280;801;47.982;7.810;2022-12-29T01:10:57;98309.63;;;14.22;59.88
1616;BME280;801;47.982;7.810;2022-12-29T01:13:23;98311.13;;;14.71;59.10
1616;BME280;801;47.982;7.810;2022-12-29T01:15:51;98314.91;;;14.70;59.78
1616;BME280;801;47.982;7.810;2022-12-29T01:18:17;98323.25;;;14.12;62.25
1616;BME280;801;47.982;7.810;2022-12-29T01:20:44;98328.75;;;14.26;63.21
1616;BME280;801;47.982;7.810;2022-12-29T01:23:10;98336.25;;;14.10;64.21
1616;BME280;801;47.982;7.810;2022-12-29T01:25:37;98331.50;;;14.02;64.88
1616;BME280;801;47.982;7.810;2022-12-29T01:28:03;98334.59;;;14.14;63.99
1616;BME280;801;47.982;7.810;2022-12-29T01:30:30;98326.81;;;14.50;62.84
1616;BME280;801;47.982;7.810;2022-12-29T01:32:58;98333.66;;;14.24;63.69
1616;BME280;801;47.982;7.810;2022-12-29T01:35:24;98334.75;;;13.80;65.84
1616;BME280;801;47.982;7.810;2022-12-29T01:37:51;98333.28;;;13.87;66.61
1616;BME280;801;47.982;7.810;2022-12-29T01:40:17;98339.81;;;13.86;65.12
1616;BME280;801;47.982;7.810;2022-12-29T01:42:44;98333.69;;;13.76;67.22
1616;BME280;801;47.982;7.810;2022-12-29T01:45:11;98346.44;;;13.70;68.07
1616;BME280;801;47.982;7.810;2022-12-29T01:47:41;98341.59;;;13.08;70.99
1616;BME280;801;47.982;7.810;2022-12-29T01:50:13;98328.22;;;13.27;71.03
1616;BME280;801;47.982;7.810;2022-12-29T01:52:43;98344.56;;;13.41;70.13
1616;BME280;801;47.982;7.810;2022-12-29T01:55:12;98347.31;;;13.36;70.14
1616;BME280;801;47.982;7.810;2022-12-29T01:57:40;98336.19;;;13.43;70.15
1616;BME280;801;47.982;7.810;2022-12-29T02:00:11;98334.72;;;13.21;70.17
1616;BME280;801;47.982;7.810;2022-12-29T02:02:39;98331.84;;;13.47;69.80
1616;BME280;801;47.982;7.810;2022-12-29T02:05:11;98322.44;;;13.39;69.13
1616;BME280;801;47.982;7.810;2022-12-29T02:07:40;98333.22;;;13.44;68.66
1616;BME280;801;47.982;7.810;2022-12-29T02:10:08;98329.88;;;13.53;68.44
1616;BME280;801;47.982;7.810;2022-12-29T02:12:34;98324.59;;;13.42;68.84
1616;BME280;801;47.982;7.810;2022-12-29T02:15:02;98332.75;;;13.61;68.81
1616;BME280;801;47.982;7.810;2022-12-29T02:17:41;98322.00;;;13.27;70.54
1616;BME280;801;47.982;7.810;2022-12-29T02:20:38;98312.84;;;13.28;70.41
1616;BME280;801;47.982;7.810;2022-12-29T02:23:24;98316.84;;;13.36;71.37
1616;BME280;801;47.982;7.810;2022-12-29T02:26:21;98313.91;;;13.32;71.59
1616;BME280;801;47.982;7.810;2022-12-29T02:29:15;98317.69;;;13.31;72.86
1616;BME280;801;47.982;7.810;2022-12-29T02:31:49;98333.97;;;13.50;72.51
1616;BME280;801;47.982;7.810;2022-12-29T02:34:26;98336.31;;;13.27;72.64
1616;BME280;801;47.982;7.810;2022-12-29T02:37:02;98315.97;;;13.40;72.77
1616;BME280;801;47.982;7.810;2022-12-29T02:39:35;98318.44;;;13.37;73.39
1616;BME280;801;47.982;7.810;2022-12-29T02:42:10;98325.78;;;13.31;74.22
1616;BME280;801;47.982;7.810;2022-12-29T02:44:52;98330.09;;;13.32;74.75
1616;BME280;801;47.982;7.810;2022-12-29T02:47:27;98320.50;;;13.16;76.52
1616;BME280;801;47.982;7.810;2022-12-29T02:49:59;98311.88;;;13.14;76.99
1616;BME280;801;47.982;7.810;2022-12-29T02:52:33;98334.97;;;13.25;77.39
1616;BME280;801;47.982;7.810;2022-12-29T02:55:00;98304.03;;;13.17;77.38
1616;BME280;801;47.982;7.810;2022-12-29T02:57:31;98295.59;;;13.29;77.31
1616;BME280;801;47.982;7.810;2022-12-29T03:00:02;98324.25;;;13.20;78.20
1616;BME280;801;47.982;7.810;2022-12-29T03:02:57;98344.84;;;13.11;78.79
1616;BME280;801;47.982;7.810;2022-12-29T03:05:51;98308.53;;;13.27;78.95
1616;BME280;801;47.982;7.810;2022-12-29T03:08:32;98320.34;;;13.36;78.92
1616;BME280;801;47.982;7.810;2022-12-29T03:11:02;98307.44;;;13.28;79.20
1616;BME280;801;47.982;7.810;2022-12-29T03:13:34;98306.00;;;13.06;80.18
1616;BME280;801;47.982;7.810;2022-12-29T03:16:23;98298.06;;;13.49;78.84
1616;BME280;801;47.982;7.810;2022-12-29T03:19:05;98298.44;;;13.08;79.82
1616;BME280;801;47.982;7.810;2022-12-29T03:21:36;98306.69;;;13.22;78.56
1616;BME280;801;47.982;7.810;2022-12-29T03:24:28;98281.41;;;13.13;78.86
1616;BME280;801;47.982;7.810;2022-12-29T03:26:58;98283.66;;;13.35;77.41
1616;BME280;801;47.982;7.810;2022-12-29T03:29:27;98272.53;;;13.42;77.70
1616;BME280;801;47.982;7.810;2022-12-29T03:31:56;98265.56;;;13.06;79.78
1616;BME280;801;47.982;7.810;2022-12-29T03:34:26;98264.31;;;13.23;79.43
1616;BME280;801;47.982;7.810;2022-12-29T03:36:58;98274.00;;;13.29;79.76
1616;BME280;801;47.982;7.810;2022-12-29T03:39:26;98254.97;;;13.39;79.16
1616;BME280;801;47.982;7.810;2022-12-29T03:41:58;98253.97;;;13.35;79.86
1616;BME280;801;47.982;7.810;2022-12-29T03:44:32;98250.50;;;13.29;79.93
1616;BME280;801;47.982;7.810;2022-12-29T03:46:59;98260.63;;;13.14;81.49
1616;BME280;801;47.982;7.810;2022-12-29T03:49:27;98269.28;;;13.11;81.20
1616;BME280;801;47.982;7.810;2022-12-29T03:51:53;98260.22;;;13.25;80.99
1616;BME280;801;47.982;7.810;2022-12-29T03:54:20;98256.09;;;13.09;81.84
1616;BME280;801;47.982;7.810;2022-12-29T03:56:46;98264.38;;;13.18;82.04
1616;BME280;801;47.982;7.810;2022-12-29T03:59:13;98280.25;;;13.19;81.83
1616;BME280;801;47.982;7.810;2022-12-29T04:01:39;98278.94;;;13.46;80.53
1616;BME280;801;47.982;7.810;2022-12-29T04:04:06;98289.06;;;13.35;81.50
1616;BME280;801;47.982;7.810;2022-12-29T04:06:34;98280.47;;;13.28;82.05
1616;BME280;801;47.982;7.810;2022-12-29T04:09:01;98283.19;;;13.23;82.38
1616;BME280;801;47.982;7.810;2022-12-29T04:11:27;98277.78;;;13.23;81.99
1616;BME280;801;47.982;7.810;2022-12-29T04:13:53;98270.44;;;13.04;83.26
1616;BME280;801;47.982;7.810;2022-12-29T04:16:20;98266.53;;;13.16;82.57
1616;BME280;801;47.982;7.810;2022-12-29T04:18:46;98276.16;;;13.27;82.46
1616;BME280;801;47.982;7.810;2022-12-29T04:21:13;98271.75;;;13.07;82.76
1616;BME280;801;47.982;7.810;2022-12-29T04:23:41;98273.94;;;13.34;82.31
1616;BME280;801;47.982;7.810;2022-12-29T04:26:08;98273.69;;;13.31;82.32
1616;BME280;801;47.982;7.810;2022-12-29T04:28:35;98263.31;;;13.14;82.80
1616;BME280;801;47.982;7.810;2022-12-29T04:31:02;98272.97;;;13.20;82.93
1616;BME280;801;47.982;7.810;2022-12-29T04:33:29;98276.22;;;13.17;82.41
1616;BME280;801;47.982;7.810;2022-12-29T04:35:56;98261.69;;;13.13;83.53
1616;BME280;801;47.982;7.810;2022-12-29T04:38:23;98270.63;;;13.13;82.79
1616;BME280;801;47.982;7.810;2022-12-29T04:40:51;98255.38;;;12.98;83.42
1616;BME280;801;47.982;7.810;2022-12-29T04:43:18;98256.16;;;13.04;82.93
1616;BME280;801;47.982;7.810;2022-12-29T04:45:46;98247.75;;;13.35;81.77
1616;BME280;801;47.982;7.810;2022-12-29T04:48:14;98241.31;;;13.31;81.22
1616;BME280;801;47.982;7.810;2022-12-29T04:50:41;98244.25;;;13.34;80.47
1616;BME280;801;47.982;7.810;2022-12-29T04:53:07;98247.91;;;13.43;80.11
1616;BME280;801;47.982;7.810;2022-12-29T04:55:34;98258.31;;;13.26;80.71
1616;BME280;801;47.982;7.810;2022-12-29T04:58:02;98267.13;;;13.42;79.50
1616;BME280;801;47.982;7.810;2022-12-29T05:00:28;98231.56;;;13.59;78.53
1616;BME280;801;47.982;7.810;2022-12-29T05:02:55;98244.53;;;13.57;78.39
1616;BME280;801;47.982;7.810;2022-12-29T05:05:21;98237.13;;;13.67;77.68
1616;BME280;801;47.982;7.810;2022-12-29T05:07:48;98230.47;;;13.60;77.48
1616;BME280;801;47.982;7.810;2022-12-29T05:10:15;98252.34;;;13.82;76.37
1616;BME280;801;47.982;7.810;2022-12-29T05:12:42;98244.28;;;13.77;76.21
1616;BME280;801;47.982;7.810;2022-12-29T05:15:10;98248.75;;;13.87;75.73
1616;BME280;801;47.982;7.810;2022-12-29T05:17:37;98232.34;;;14.02;74.88
1616;BME280;801;47.982;7.810;2022-12-29T05:20:05;98248.41;;;14.12;73.16
1616;BME280;801;47.982;7.810;2022-12-29T05:22:32;98235.53;;;13.85;74.88
1616;BME280;801;47.982;7.810;2022-12-29T05:24:58;98226.66;;;14.04;73.20
1616;BME280;801;47.982;7.810;2022-12-29T05:27:25;98210.06;;;14.10;72.23
1616;BME280;801;47.982;7.810;2022-12-29T05:29:51;98212.91;;;14.19;71.01
1616;BME280;801;47.982;7.810;2022-12-29T05:32:19;98220.66;;;14.26;71.16
1616;BME280;801;47.982;7.810;2022-12-29T05:34:46;98220.38;;;14.27;70.60
1616;BME280;801;47.982;7.810;2022-12-29T05:37:12;98230.59;;;14.30;69.82
1616;BME280;801;47.982;7.810;2022-12-29T05:39:39;98222.47;;;14.30;69.20
1616;BME280;801;47.982;7.810;2022-12-29T05:42:05;98208.31;;;14.39;69.21
1616;BME280;801;47.982;7.810;2022-12-29T05:44:32;98228.91;;;14.53;68.25
1616;BME280;801;47.982;7.810;2022-12-29T05:46:58;98212.81;;;14.43;68.40
1616;BME280;801;47.982;7.810;2022-12-29T05:49:26;98238.63;;;14.36;68.40
1616;BME280;801;47.982;7.810;2022-12-29T05:51:53;98208.22;;;14.44;67.67
1616;BME280;801;47.982;7.810;2022-12-29T05:54:19;98212.03;;;14.43;67.94
1616;BME280;801;47.982;7.810;2022-12-29T05:56:46;98228.06;;;14.53;67.16
1616;BME280;801;47.982;7.810;2022-12-29T05:59:12;98209.94;;;14.72;66.02
1616;BME280;801;47.982;7.810;2022-12-29T06:01:38;98209.13;;;14.58;66.79
1616;BME280;801;47.982;7.810;2022-12-29T06:04:05;98225.13;;;14.55;66.12
1616;BME280;801;47.982;7.810;2022-12-29T06:06:33;98243.31;;;14.49;66.38
1616;BME280;801;47.982;7.810;2022-12-29T06:08:59;98201.03;;;14.53;64.80
1616;BME280;801;47.982;7.810;2022-12-29T06:11:26;98220.50;;;14.55;64.50
1616;BME280;801;47.982;7.810;2022-12-29T06:13:52;98217.25;;;14.72;63.82
1616;BME280;801;47.982;7.810;2022-12-29T06:16:19;98214.88;;;14.51;64.16
1616;BME280;801;47.982;7.810;2022-12-29T06:18:45;98199.50;;;14.66;63.42
1616;BME280;801;47.982;7.810;2022-12-29T06:21:12;98208.59;;;14.56;63.33
1616;BME280;801;47.982;7.810;2022-12-29T06:23:40;98218.66;;;14.69;63.47
1616;BME280;801;47.982;7.810;2022-12-29T06:26:06;98205.66;;;14.52;63.36
1616;BME280;801;47.982;7.810;2022-12-29T06:28:33;98197.63;;;14.47;63.25
1616;BME280;801;47.982;7.810;2022-12-29T06:30:59;98198.31;;;14.58;62.73
1616;BME280;801;47.982;7.810;2022-12-29T06:33:27;98208.06;;;14.54;62.93
1616;BME280;801;47.982;7.810;2022-12-29T06:35:54;98215.25;;;14.45;63.32
1616;BME280;801;47.982;7.810;2022-12-29T06:38:20;98211.66;;;14.49;63.06
1616;BME280;801;47.982;7.810;2022-12-29T06:40:48;98212.16;;;14.51;62.99
1616;BME280;801;47.982;7.810;2022-12-29T06:43:15;98195.50;;;14.63;62.33
1616;BME280;801;47.982;7.810;2022-12-29T06:45:41;98209.47;;;14.51;62.59
1616;BME280;801;47.982;7.810;2022-12-29T06:48:08;98210.31;;;14.66;61.83
1616;BME280;801;47.982;7.810;2022-12-29T06:50:35;98206.91;;;14.60;62.02
1616;BME280;801;47.982;7.810;2022-12-29T06:53:01;98210.03;;;14.67;61.58
1616;BME280;801;47.982;7.810;2022-12-29T06:55:28;98222.53;;;14.63;61.96
1616;BME280;801;47.982;7.810;2022-12-29T06:57:56;98224.97;;;14.65;61.95
1616;BME280;801;47.982;7.810;2022-12-29T07:00:23;98216.53;;;14.66;61.92
1616;BME280;801;47.982;7.810;2022-12-29T07:02:50;98216.97;;;14.73;61.34
1616;BME280;801;47.982;7.810;2022-12-29T07:05:17;98203.75;;;14.72;61.70
1616;BME280;801;47.982;7.810;2022-12-29T07:07:44;98230.00;;;14.71;62.06
1616;BME280;801;47.982;7.810;2022-12-29T07:10:10;98209.34;;;14.76;61.75
1616;BME280;801;47.982;7.810;2022-12-29T07:12:37;98206.94;;;14.74;61.66
1616;BME280;801;47.982;7.810;2022-12-29T07:15:06;98205.47;;;14.82;61.57
1616;BME280;801;47.982;7.810;2022-12-29T07:17:32;98207.34;;;14.67;62.44
1616;BME280;801;47.982;7.810;2022-12-29T07:19:59;98202.38;;;14.88;61.52
1616;BME280;801;47.982;7.810;2022-12-29T07:22:25;98216.34;;;14.63;63.00
1616;BME280;801;47.982;7.810;2022-12-29T07:24:52;98223.06;;;14.65;63.49
1616;BME280;801;47.982;7.810;2022-12-29T07:27:19;98229.34;;;14.61;63.99
1616;BME280;801;47.982;7.810;2022-12-29T07:29:45;98237.78;;;14.73;64.64
1616;BME280;801;47.982;7.810;2022-12-29T07:32:13;98250.91;;;14.47;65.41
1616;BME280;801;47.982;7.810;2022-12-29T07:34:40;98230.22;;;14.56;66.09
1616;BME280;801;47.982;7.810;2022-12-29T07:37:06;98247.41;;;14.65;65.97
1616;BME280;801;47.982;7.810;2022-12-29T07:39:33;98251.47;;;14.44;67.14
1616;BME280;801;47.982;7.810;2022-12-29T07:41:59;98245.63;;;13.99;71.65
1616;BME280;801;47.982;7.810;2022-12-29T07:44:26;98257.94;;;13.86;73.25
1616;BME280;801;47.982;7.810;2022-12-29T07:46:52;98246.50;;;14.13;70.82
1616;BME280;801;47.982;7.810;2022-12-29T07:49:20;98249.00;;;14.28;68.93
1616;BME280;801;47.982;7.810;2022-12-29T07:51:47;98269.44;;;14.35;67.80
1616;BME280;801;47.982;7.810;2022-12-29T07:54:13;98265.66;;;14.36;69.10
1616;BME280;801;47.982;7.810;2022-12-29T07:56:43;98262.97;;;14.36;68.67
1616;BME280;801;47.982;7.810;2022-12-29T07:59:09;98270.13;;;14.45;67.87
1616;BME280;801;47.982;7.810;2022-12-29T08:01:37;98266.41;;;14.60;67.42
1616;BME280;801;47.982;7.810;2022-12-29T08:04:04;98266.47;;;14.36;68.52
1616;BME280;801;47.982;7.810;2022-12-29T08:06:31;98294.41;;;14.26;68.78
1616;BME280;801;47.982;7.810;2022-12-29T08:08:58;98271.78;;;14.41;67.47
1616;BME280;801;47.982;7.810;2022-12-29T08:11:26;98283.13;;;14.43;68.17
1616;BME280;801;47.982;7.810;2022-12-29T08:13:53;98295.09;;;14.37;67.85
1616;BME280;801;47.982;7.810;2022-12-29T08:16:19;98268.19;;;14.46;67.27
1616;BME280;801;47.982;7.810;2022-12-29T08:18:46;98285.03;;;14.43;67.48
1616;BME280;801;47.982;7.810;2022-12-29T08:21:12;98283.91;;;14.44;67.77
1616;BME280;801;47.982;7.810;2022-12-29T08:23:40;98293.69;;;14.40;67.63
1616;BME280;801;47.982;7.810;2022-12-29T08:26:07;98303.16;;;14.42;68.92
1616;BME280;801;47.982;7.810;2022-12-29T08:28:33;98309.47;;;14.32;70.47
1616;BME280;801;47.982;7.810;2022-12-29T08:31:00;98283.84;;;14.30;72.37
1616;BME280;801;47.982;7.810;2022-12-29T08:33:27;98320.84;;;14.10;72.92
1616;BME280;801;47.982;7.810;2022-12-29T08:35:58;98309.25;;;14.10;75.04
1616;BME280;801;47.982;7.810;2022-12-29T08:38:25;98297.00;;;14.37;74.63
1616;BME280;801;47.982;7.810;2022-12-29T08:40:54;98306.06;;;14.27;76.28
1616;BME280;801;47.982;7.810;2022-12-29T08:43:21;98324.13;;;14.07;77.03
1616;BME280;801;47.982;7.810;2022-12-29T08:45:47;98318.81;;;14.02;77.83
1616;BME280;801;47.982;7.810;2022-12-29T08:48:14;98305.31;;;14.21;78.21
1616;BME280;801;47.982;7.810;2022-12-29T08:50:43;98312.38;;;14.17;77.91
1616;BME280;801;47.982;7.810;2022-12-29T08:53:10;98311.66;;;14.11;77.23
1616;BME280;801;47.982;7.810;2022-12-29T08:55:36;98308.00;;;14.21;77.21
1616;BME280;801;47.982;7.810;2022-12-29T08:58:04;98309.03;;;14.25;76.81
1616;BME280;801;47.982;7.810;2022-12-29T09:00:31;98323.34;;;14.26;76.68
1616;BME280;801;47.982;7.810;2022-12-29T09:02:57;98335.78;;;14.46;76.60
1616;BME280;801;47.982;7.810;2022-12-29T09:05:24;98322.75;;;14.10;78.62
1616;BME280;801;47.982;7.810;2022-12-29T09:07:50;98342.59;;;14.00;79.51
1616;BME280;801;47.982;7.810;2022-12-29T09:10:17;98336.78;;;14.12;79.93
1616;BME280;801;47.982;7.810;2022-12-29T09:12:44;98338.25;;;14.04;80.32
1616;BME280;801;47.982;7.810;2022-12-29T09:15:11;98346.19;;;14.15;81.04
1616;BME280;801;47.982;7.810;2022-12-29T09:17:38;98352.88;;;14.22;80.63
1616;BME280;801;47.982;7.810;2022-12-29T09:20:10;98359.63;;;14.01;81.78
1616;BME280;801;47.982;7.810;2022-12-29T09:22:37;98348.53;;;14.02;82.34
1616;BME280;801;47.982;7.810;2022-12-29T09:25:04;98368.78;;;14.00;83.45
1616;BME280;801;47.982;7.810;2022-12-29T09:27:30;98344.44;;;14.05;83.68
1616;BME280;801;47.982;7.810;2022-12-29T09:29:57;98353.94;;;14.02;83.55
1616;BME280;801;47.982;7.810;2022-12-29T09:32:25;98359.84;;;14.04;83.59
1616;BME280;801;47.982;7.810;2022-12-29T09:34:52;98369.56;;;14.05;84.38
1616;BME280;801;47.982;7.810;2022-12-29T09:37:18;98380.19;;;13.97;85.85
1616;BME280;801;47.982;7.810;2022-12-29T09:39:44;98397.31;;;13.87;88.45
1616;BME280;801;47.982;7.810;2022-12-29T09:42:16;98388.84;;;13.69;93.63
1616;BME280;801;47.982;7.810;2022-12-29T09:44:56;98395.25;;;13.49;99.15
1616;BME280;801;47.982;7.810;2022-12-29T09:47:28;98382.41;;;13.36;100.00
1616;BME280;801;47.982;7.810;2022-12-29T09:49:56;98391.56;;;13.40;100.00
1616;BME280;801;47.982;7.810;2022-12-29T09:52:27;98382.13;;;13.38;100.00
1616;BME280;801;47.982;7.810;2022-12-29T09:54:57;98375.22;;;13.21;100.00
1616;BME280;801;47.982;7.810;2022-12-29T09:57:28;98367.66;;;13.28;100.00
1616;BME280;801;47.982;7.810;2022-12-29T09:59:58;98366.38;;;13.16;100.00
1616;BME280;801;47.982;7.810;2022-12-29T10:02:36;98374.91;;;13.28;100.00
1616;BME280;801;47.982;7.810;2022-12-29T10:05:04;98372.75;;;13.25;100.00
1616;BME280;801;47.982;7.810;2022-12-29T10:07:46;98356.66;;;13.15;100.00
1616;BME280;801;47.982;7.810;2022-12-29T10:10:24;98359.31;;;13.20;100.00
1616;BME280;801;47.982;7.810;2022-12-29T10:13:01;98371.03;;;13.39;100.00
1616;BME280;801;47.982;7.810;2022-12-29T10:15:39;98353.16;;;13.14;100.00
1616;BME280;801;47.982;7.810;2022-12-29T10:18:18;98363.56;;;13.26;100.00
1616;BME280;801;47.982;7.810;2022-12-29T10:20:50;98353.31;;;13.33;100.00
1616;BME280;801;47.982;7.810;2022-12-29T10:23:26;98357.88;;;13.33;100.00
1616;BME280;801;47.982;7.810;2022-12-29T10:25:54;98358.69;;;13.33;100.00
1616;BME280;801;47.982;7.810;2022-12-29T10:28:23;98354.97;;;13.24;100.00
1616;BME280;801;47.982;7.810;2022-12-29T10:30:51;98351.34;;;13.04;100.00
1616;BME280;801;47.982;7.810;2022-12-29T10:33:23;98356.09;;;13.18;100.00
1616;BME280;801;47.982;7.810;2022-12-29T10:35:51;98357.28;;;13.06;100.00
1616;BME280;801;47.982;7.810;2022-12-29T10:38:23;98358.97;;;12.97;100.00
1616;BME280;801;47.982;7.810;2022-12-29T10:40:56;98374.03;;;12.98;100.00
1616;BME280;801;47.982;7.810;2022-12-29T10:43:26;98367.38;;;13.25;100.00
1616;BME280;801;47.982;7.810;2022-12-29T10:45:56;98347.97;;;12.83;100.00
1616;BME280;801;47.982;7.810;2022-12-29T10:48:27;98340.63;;;12.94;100.00
1616;BME280;801;47.982;7.810;2022-12-29T10:50:58;98342.25;;;12.95;100.00
1616;BME280;801;47.982;7.810;2022-12-29T10:53:29;98329.28;;;12.97;100.00
1616;BME280;801;47.982;7.810;2022-12-29T10:56:00;98321.31;;;13.16;100.00
1616;BME280;801;47.982;7.810;2022-12-29T10:58:29;98329.31;;;13.26;100.00
1616;BME280;801;47.982;7.810;2022-12-29T11:00:57;98324.69;;;12.98;100.00
1616;BME280;801;47.982;7.810;2022-12-29T11:03:38;98321.69;;;12.99;100.00
1616;BME280;801;47.982;7.810;2022-12-29T11:06:10;98319.53;;;13.01;100.00
1616;BME280;801;47.982;7.810;2022-12-29T11:08:45;98312.81;;;13.33;100.00
1616;BME280;801;47.982;7.810;2022-12-29T11:11:23;98326.50;;;13.66;100.00
1616;BME280;801;47.982;7.810;2022-12-29T11:13:56;98321.41;;;13.64;100.00
1616;BME280;801;47.982;7.810;2022-12-29T11:16:30;98329.13;;;13.18;100.00
1616;BME280;801;47.982;7.810;2022-12-29T11:18:59;98315.56;;;13.23;100.00
1616;BME280;801;47.982;7.810;2022-12-29T11:21:31;98320.72;;;13.19;100.00
1616;BME280;801;47.982;7.810;2022-12-29T11:24:00;98332.00;;;13.26;100.00
1616;BME280;801;47.982;7.810;2022-12-29T11:26:27;98329.19;;;13.66;100.00
1616;BME280;801;47.982;7.810;2022-12-29T11:29:09;98332.63;;;13.47;100.00
1616;BME280;801;47.982;7.810;2022-12-29T11:31:42;98312.09;;;13.76;100.00
1616;BME280;801;47.982;7.810;2022-12-29T11:34:17;98324.63;;;13.66;100.00
1616;BME280;801;47.982;7.810;2022-12-29T11:36:43;98317.19;;;13.77;100.00
1616;BME280;801;47.982;7.810;2022-12-29T11:39:24;98313.59;;;13.63;100.00
1616;BME280;801;47.982;7.810;2022-12-29T11:41:52;98310.63;;;13.59;100.00
1616;BME280;801;47.982;7.810;2022-12-29T11:44:19;98302.78;;;13.63;100.00
1616;BME280;801;47.982;7.810;2022-12-29T11:46:48;98304.69;;;13.62;100.00
1616;BME280;801;47.982;7.810;2022-12-29T11:49:21;98296.44;;;13.73;100.00
1616;BME280;801;47.982;7.810;2022-12-29T11:51:49;98292.44;;;13.70;100.00
1616;BME280;801;47.982;7.810;2022-12-29T11:54:19;98293.56;;;13.88;100.00
1616;BME280;801;47.982;7.810;2022-12-29T11:56:49;98279.97;;;13.74;100.00
1616;BME280;801;47.982;7.810;2022-12-29T11:59:37;98291.81;;;13.78;100.00
1616;BME280;801;47.982;7.810;2022-12-29T12:02:21;98281.44;;;13.66;100.00
1616;BME280;801;47.982;7.810;2022-12-29T12:04:56;98297.56;;;13.72;100.00
1616;BME280;801;47.982;7.810;2022-12-29T12:07:36;98287.81;;;13.95;100.00
1616;BME280;801;47.982;7.810;2022-12-29T12:10:05;98288.84;;;13.56;100.00
1616;BME280;801;47.982;7.810;2022-12-29T12:12:37;98284.78;;;13.77;100.00
1616;BME280;801;47.982;7.810;2022-12-29T12:15:12;98277.84;;;13.71;100.00
1616;BME280;801;47.982;7.810;2022-12-29T12:17:47;98280.94;;;13.83;100.00
1616;BME280;801;47.982;7.810;2022-12-29T12:20:20;98286.16;;;13.75;100.00
1616;BME280;801;47.982;7.810;2022-12-29T12:22:53;98273.94;;;13.34;100.00
1616;BME280;801;47.982;7.810;2022-12-29T12:25:27;98277.44;;;13.35;100.00
1616;BME280;801;47.982;7.810;2022-12-29T12:27:58;98267.94;;;13.37;100.00
1616;BME280;801;47.982;7.810;2022-12-29T12:30:28;98260.91;;;13.41;100.00
1616;BME280;801;47.982;7.810;2022-12-29T12:33:00;98267.25;;;13.26;100.00
1616;BME280;801;47.982;7.810;2022-12-29T12:35:36;98260.38;;;13.39;100.00
1616;BME280;801;47.982;7.810;2022-12-29T12:38:15;98264.81;;;13.25;100.00
1616;BME280;801;47.982;7.810;2022-12-29T12:40:59;98272.81;;;13.64;100.00
1616;BME280;801;47.982;7.810;2022-12-29T12:43:43;98265.31;;;13.80;100.00
1616;BME280;801;47.982;7.810;2022-12-29T12:46:19;98245.09;;;13.78;100.00
1616;BME280;801;47.982;7.810;2022-12-29T12:49:07;98253.94;;;13.59;100.00
1616;BME280;801;47.982;7.810;2022-12-29T12:51:50;98254.44;;;13.66;100.00
1616;BME280;801;47.982;7.810;2022-12-29T12:54:29;98248.94;;;14.33;100.00
1616;BME280;801;47.982;7.810;2022-12-29T12:57:08;98250.44;;;14.40;100.00
1616;BME280;801;47.982;7.810;2022-12-29T12:59:48;98250.31;;;14.31;100.00
1616;BME280;801;47.982;7.810;2022-12-29T13:02:29;98257.25;;;13.75;100.00
1616;BME280;801;47.982;7.810;2022-12-29T13:05:25;98250.38;;;13.88;100.00
1616;BME280;801;47.982;7.810;2022-12-29T13:08:17;98242.22;;;14.12;100.00
1616;BME280;801;47.982;7.810;2022-12-29T13:10:52;98245.31;;;13.81;100.00
1616;BME280;801;47.982;7.810;2022-12-29T13:13:45;98254.00;;;13.78;100.00
1616;BME280;801;47.982;7.810;2022-12-29T13:16:23;98250.59;;;13.91;100.00
1616;BME280;801;47.982;7.810;2022-12-29T13:18:58;98244.28;;;13.77;100.00
1616;BME280;801;47.982;7.810;2022-12-29T13:21:39;98253.47;;;14.00;100.00
1616;BME280;801;47.982;7.810;2022-12-29T13:24:16;98246.53;;;13.70;100.00
1616;BME280;801;47.982;7.810;2022-12-29T13:26:48;98259.47;;;13.73;100.00
1616;BME280;801;47.982;7.810;2022-12-29T13:29:18;98250.34;;;13.69;100.00
1616;BME280;801;47.982;7.810;2022-12-29T13:31:52;98271.97;;;13.64;100.00
1616;BME280;801;47.982;7.810;2022-12-29T13:34:30;98251.22;;;13.83;100.00
1616;BME280;801;47.982;7.810;2022-12-29T13:37:04;98244.63;;;13.70;100.00
1616;BME280;801;47.982;7.810;2022-12-29T13:39:39;98242.25;;;13.88;100.00
1616;BME280;801;47.982;7.810;2022-12-29T13:42:07;98275.78;;;13.63;100.00
1616;BME280;801;47.982;7.810;2022-12-29T13:44:37;98248.03;;;13.57;100.00
1616;BME280;801;47.982;7.810;2022-12-29T13:47:15;98252.44;;;13.72;100.00
1616;BME280;801;47.982;7.810;2022-12-29T13:49:46;98244.41;;;14.29;100.00